sensor_id;sensor_type;location;lat;lon;timestamp;temperature;humidity
49829;DHT22;35723;51.194;5.112;2024-02-21T00:01:05;11.50;99.90
49829;DHT22;35723;51.194;5.112;2024-02-21T00:03:31;11.40;99.90
49829;DHT22;35723;51.194;5.112;2024-02-21T00:05:57;11.40;99.90
49829;DHT22;35723;51.194;5.112;2024-02-21T00:08:22;11.40;99.90
49829;DHT22;35723;51.194;5.112;2024-02-21T00:10:48;11.40;99.90
49829;DHT22;35723;51.194;5.112;2024-02-21T00:13:14;11.40;99.90
49829;DHT22;35723;51.194;5.112;2024-02-21T00:15:40;11.10;99.90
49829;DHT22;35723;51.194;5.112;2024-02-21T00:18:06;11.20;99.90
49829;DHT22;35723;51.194;5.112;2024-02-21T00:20:31;11.20;99.90
49829;DHT22;35723;51.194;5.112;2024-02-21T00:22:57;11.20;99.90
49829;DHT22;35723;51.194;5.112;2024-02-21T00:25:23;11.30;99.90
49829;DHT22;35723;51.194;5.112;2024-02-21T00:27:48;11.40;99.90
49829;DHT22;35723;51.194;5.112;2024-02-21T00:30:14;11.40;99.90
49829;DHT22;35723;51.194;5.112;2024-02-21T00:32:40;11.50;99.90
49829;DHT22;35723;51.194;5.112;2024-02-21T00:35:06;11.50;99.90
49829;DHT22;35723;51.194;5.112;2024-02-21T00:37:31;11.50;99.90
49829;DHT22;35723;51.194;5.112;2024-02-21T00:39:57;11.50;99.90
49829;DHT22;35723;51.194;5.112;2024-02-21T00:42:23;11.60;99.90
49829;DHT22;35723;51.194;5.112;2024-02-21T00:44:48;11.50;99.90
49829;DHT22;35723;51.194;5.112;2024-02-21T00:47:14;11.30;99.90
49829;DHT22;35723;51.194;5.112;2024-02-21T00:49:39;11.40;99.90
49829;DHT22;35723;51.194;5.112;2024-02-21T00:52:06;11.40;99.90
49829;DHT22;35723;51.194;5.112;2024-02-21T00:54:31;11.20;99.90
49829;DHT22;35723;51.194;5.112;2024-02-21T00:56:57;11.10;99.90
49829;DHT22;35723;51.194;5.112;2024-02-21T00:59:22;11.20;99.90
49829;DHT22;35723;51.194;5.112;2024-02-21T01:01:48;11.10;99.90
49829;DHT22;35723;51.194;5.112;2024-02-21T01:04:14;11.10;99.90
49829;DHT22;35723;51.194;5.112;2024-02-21T01:06:39;11.00;99.90
49829;DHT22;35723;51.194;5.112;2024-02-21T01:09:08;11.20;99.90
49829;DHT22;35723;51.194;5.112;2024-02-21T01:11:33;11.20;99.90
49829;DHT22;35723;51.194;5.112;2024-02-21T01:13:59;11.30;99.90
49829;DHT22;35723;51.194;5.112;2024-02-21T01:16:25;11.40;99.90
49829;DHT22;35723;51.194;5.112;2024-02-21T01:18:51;11.40;99.90
49829;DHT22;35723;51.194;5.112;2024-02-21T01:21:17;11.40;99.90
49829;DHT22;35723;51.194;5.112;2024-02-21T01:23:43;11.20;99.90
49829;DHT22;35723;51.194;5.112;2024-02-21T01:26:08;11.10;99.90
49829;DHT22;35723;51.194;5.112;2024-02-21T01:28:35;11.10;99.90
49829;DHT22;35723;51.194;5.112;2024-02-21T01:31:01;11.20;99.90
49829;DHT22;35723;51.194;5.112;2024-02-21T01:33:26;11.10;99.90
49829;DHT22;35723;51.194;5.112;2024-02-21T01:35:52;11.10;99.90
49829;DHT22;35723;51.194;5.112;2024-02-21T01:38:18;11.20;99.90
49829;DHT22;35723;51.194;5.112;2024-02-21T01:40:44;11.30;99.90
49829;DHT22;35723;51.194;5.112;2024-02-21T01:43:19;11.20;99.90
49829;DHT22;35723;51.194;5.112;2024-02-21T01:45:49;11.30;99.90
49829;DHT22;35723;51.194;5.112;2024-02-21T01:48:17;11.30;99.90
49829;DHT22;35723;51.194;5.112;2024-02-21T01:50:47;11.30;99.90
49829;DHT22;35723;51.194;5.112;2024-02-21T01:53:24;11.20;99.90
49829;DHT22;35723;51.194;5.112;2024-02-21T01:55:50;11.30;99.90
49829;DHT22;35723;51.194;5.112;2024-02-21T01:58:17;11.10;99.90
49829;DHT22;35723;51.194;5.112;2024-02-21T02:00:45;11.20;99.90
49829;DHT22;35723;51.194;5.112;2024-02-21T02:03:11;11.20;99.90
49829;DHT22;35723;51.194;5.112;2024-02-21T02:05:47;11.30;99.90
49829;DHT22;35723;51.194;5.112;2024-02-21T02:08:14;11.30;99.90
49829;DHT22;35723;51.194;5.112;2024-02-21T02:10:41;11.30;99.90
49829;DHT22;35723;51.194;5.112;2024-02-21T02:13:07;11.30;99.90
49829;DHT22;35723;51.194;5.112;2024-02-21T02:15:46;11.20;99.90
49829;DHT22;35723;51.194;5.112;2024-02-21T02:18:13;11.10;99.90
49829;DHT22;35723;51.194;5.112;2024-02-21T02:20:39;11.10;99.90
49829;DHT22;35723;51.194;5.112;2024-02-21T02:23:18;11.10;99.90
49829;DHT22;35723;51.194;5.112;2024-02-21T02:25:43;11.00;99.90
49829;DHT22;35723;51.194;5.112;2024-02-21T02:28:11;11.10;99.90
49829;DHT22;35723;51.194;5.112;2024-02-21T02:30:36;11.20;99.90
49829;DHT22;35723;51.194;5.112;2024-02-21T02:33:04;11.30;99.90
49829;DHT22;35723;51.194;5.112;2024-02-21T02:35:30;11.30;99.90
49829;DHT22;35723;51.194;5.112;2024-02-21T02:37:55;11.20;99.90
49829;DHT22;35723;51.194;5.112;2024-02-21T02:40:21;11.40;99.90
49829;DHT22;35723;51.194;5.112;2024-02-21T02:42:48;11.40;99.90
49829;DHT22;35723;51.194;5.112;2024-02-21T02:45:15;11.40;99.90
49829;DHT22;35723;51.194;5.112;2024-02-21T02:47:40;11.40;99.90
49829;DHT22;35723;51.194;5.112;2024-02-21T02:50:07;11.40;99.90
49829;DHT22;35723;51.194;5.112;2024-02-21T02:52:33;11.30;99.90
49829;DHT22;35723;51.194;5.112;2024-02-21T02:54:59;11.20;99.90
49829;DHT22;35723;51.194;5.112;2024-02-21T02:57:27;11.20;99.90
49829;DHT22;35723;51.194;5.112;2024-02-21T02:59:52;11.30;99.90
49829;DHT22;35723;51.194;5.112;2024-02-21T03:02:18;11.30;99.90
49829;DHT22;35723;51.194;5.112;2024-02-21T03:04:44;11.20;99.90
49829;DHT22;35723;51.194;5.112;2024-02-21T03:07:10;11.30;99.90
49829;DHT22;35723;51.194;5.112;2024-02-21T03:09:37;11.30;99.90
49829;DHT22;35723;51.194;5.112;2024-02-21T03:12:04;11.30;99.90
49829;DHT22;35723;51.194;5.112;2024-02-21T03:14:30;11.40;99.90
49829;DHT22;35723;51.194;5.112;2024-02-21T03:16:56;11.30;99.90
49829;DHT22;35723;51.194;5.112;2024-02-21T03:19:22;11.30;99.90
49829;DHT22;35723;51.194;5.112;2024-02-21T03:21:48;11.40;99.90
49829;DHT22;35723;51.194;5.112;2024-02-21T03:24:15;11.20;99.90
49829;DHT22;35723;51.194;5.112;2024-02-21T03:26:41;11.30;99.90
49829;DHT22;35723;51.194;5.112;2024-02-21T03:29:06;11.40;99.90
49829;DHT22;35723;51.194;5.112;2024-02-21T03:31:33;11.30;99.90
49829;DHT22;35723;51.194;5.112;2024-02-21T03:33:58;11.20;99.90
49829;DHT22;35723;51.194;5.112;2024-02-21T03:36:24;11.30;99.90
49829;DHT22;35723;51.194;5.112;2024-02-21T03:38:50;11.30;99.90
49829;DHT22;35723;51.194;5.112;2024-02-21T03:41:15;11.20;99.90
49829;DHT22;35723;51.194;5.112;2024-02-21T03:43:41;11.10;99.90
49829;DHT22;35723;51.194;5.112;2024-02-21T03:46:07;11.10;99.90
49829;DHT22;35723;51.194;5.112;2024-02-21T03:48:32;11.20;99.90
49829;DHT22;35723;51.194;5.112;2024-02-21T03:50:58;11.20;99.90
49829;DHT22;35723;51.194;5.112;2024-02-21T03:53:24;11.10;99.90
49829;DHT22;35723;51.194;5.112;2024-02-21T03:55:50;11.00;99.90
49829;DHT22;35723;51.194;5.112;2024-02-21T03:58:15;11.00;99.90
49829;DHT22;35723;51.194;5.112;2024-02-21T04:00:41;10.90;99.90
49829;DHT22;35723;51.194;5.112;2024-02-21T04:03:07;10.90;99.90
49829;DHT22;35723;51.194;5.112;2024-02-21T04:05:32;10.80;99.90
49829;DHT22;35723;51.194;5.112;2024-02-21T04:07:58;10.80;99.90
49829;DHT22;35723;51.194;5.112;2024-02-21T04:10:24;11.00;99.90
49829;DHT22;35723;51.194;5.112;2024-02-21T04:12:50;11.00;99.90
49829;DHT22;35723;51.194;5.112;2024-02-21T04:15:16;11.00;99.90
49829;DHT22;35723;51.194;5.112;2024-02-21T04:17:42;11.10;99.90
49829;DHT22;35723;51.194;5.112;2024-02-21T04:20:14;11.00;99.90
49829;DHT22;35723;51.194;5.112;2024-02-21T04:22:40;11.00;99.90
49829;DHT22;35723;51.194;5.112;2024-02-21T04:25:06;10.90;99.90
49829;DHT22;35723;51.194;5.112;2024-02-21T04:27:32;10.90;99.90
49829;DHT22;35723;51.194;5.112;2024-02-21T04:29:58;11.00;99.90
49829;DHT22;35723;51.194;5.112;2024-02-21T04:32:23;11.10;99.90
49829;DHT22;35723;51.194;5.112;2024-02-21T04:34:49;11.00;99.90
49829;DHT22;35723;51.194;5.112;2024-02-21T04:37:14;11.00;99.90
49829;DHT22;35723;51.194;5.112;2024-02-21T04:39:40;11.10;99.90
49829;DHT22;35723;51.194;5.112;2024-02-21T04:42:06;11.10;99.90
49829;DHT22;35723;51.194;5.112;2024-02-21T04:44:31;11.00;99.90
49829;DHT22;35723;51.194;5.112;2024-02-21T04:46:57;11.10;99.90
49829;DHT22;35723;51.194;5.112;2024-02-21T04:49:23;11.10;99.90
49829;DHT22;35723;51.194;5.112;2024-02-21T04:51:48;11.10;99.90
49829;DHT22;35723;51.194;5.112;2024-02-21T04:54:14;11.00;99.90
49829;DHT22;35723;51.194;5.112;2024-02-21T04:56:40;11.10;99.90
49829;DHT22;35723;51.194;5.112;2024-02-21T04:59:05;11.10;99.90
49829;DHT22;35723;51.194;5.112;2024-02-21T05:01:31;11.10;99.90
49829;DHT22;35723;51.194;5.112;2024-02-21T05:03:57;11.00;99.90
49829;DHT22;35723;51.194;5.112;2024-02-21T05:06:22;11.00;99.90
49829;DHT22;35723;51.194;5.112;2024-02-21T05:08:49;11.10;99.90
49829;DHT22;35723;51.194;5.112;2024-02-21T05:11:14;11.00;99.90
49829;DHT22;35723;51.194;5.112;2024-02-21T05:13:40;11.10;99.90
49829;DHT22;35723;51.194;5.112;2024-02-21T05:16:06;11.10;99.90
49829;DHT22;35723;51.194;5.112;2024-02-21T05:18:33;11.10;99.90
49829;DHT22;35723;51.194;5.112;2024-02-21T05:20:59;11.00;99.90
49829;DHT22;35723;51.194;5.112;2024-02-21T05:23:24;11.10;99.90
49829;DHT22;35723;51.194;5.112;2024-02-21T05:25:50;11.10;99.90
49829;DHT22;35723;51.194;5.112;2024-02-21T05:28:16;11.10;99.90
49829;DHT22;35723;51.194;5.112;2024-02-21T05:30:42;11.10;99.90
49829;DHT22;35723;51.194;5.112;2024-02-21T05:33:08;11.20;99.90
49829;DHT22;35723;51.194;5.112;2024-02-21T05:35:35;11.20;99.90
49829;DHT22;35723;51.194;5.112;2024-02-21T05:38:01;11.30;99.90
49829;DHT22;35723;51.194;5.112;2024-02-21T05:40:30;11.30;99.90
49829;DHT22;35723;51.194;5.112;2024-02-21T05:42:56;11.30;99.90
49829;DHT22;35723;51.194;5.112;2024-02-21T05:45:23;11.30;99.90
49829;DHT22;35723;51.194;5.112;2024-02-21T05:47:49;11.40;99.90
49829;DHT22;35723;51.194;5.112;2024-02-21T05:50:15;11.30;99.90
49829;DHT22;35723;51.194;5.112;2024-02-21T05:52:41;11.20;99.90
49829;DHT22;35723;51.194;5.112;2024-02-21T05:55:07;11.30;99.90
49829;DHT22;35723;51.194;5.112;2024-02-21T05:57:34;11.30;99.90
49829;DHT22;35723;51.194;5.112;2024-02-21T06:00:00;11.20;99.90
49829;DHT22;35723;51.194;5.112;2024-02-21T06:02:25;11.20;99.90
49829;DHT22;35723;51.194;5.112;2024-02-21T06:04:51;11.20;99.90
49829;DHT22;35723;51.194;5.112;2024-02-21T06:07:16;11.30;99.90
49829;DHT22;35723;51.194;5.112;2024-02-21T06:09:42;11.30;99.90
49829;DHT22;35723;51.194;5.112;2024-02-21T06:12:08;11.20;99.90
49829;DHT22;35723;51.194;5.112;2024-02-21T06:14:33;11.30;99.90
49829;DHT22;35723;51.194;5.112;2024-02-21T06:16:59;11.30;99.90
49829;DHT22;35723;51.194;5.112;2024-02-21T06:19:24;11.20;99.90
49829;DHT22;35723;51.194;5.112;2024-02-21T06:21:50;11.20;99.90
49829;DHT22;35723;51.194;5.112;2024-02-21T06:24:15;11.20;99.90
49829;DHT22;35723;51.194;5.112;2024-02-21T06:26:41;11.10;99.90
49829;DHT22;35723;51.194;5.112;2024-02-21T06:29:07;11.20;99.90
49829;DHT22;35723;51.194;5.112;2024-02-21T06:31:32;11.00;99.90
49829;DHT22;35723;51.194;5.112;2024-02-21T06:33:58;11.00;99.90
49829;DHT22;35723;51.194;5.112;2024-02-21T06:36:24;11.00;99.90
49829;DHT22;35723;51.194;5.112;2024-02-21T06:38:49;11.10;99.90
49829;DHT22;35723;51.194;5.112;2024-02-21T06:41:16;11.00;99.90
49829;DHT22;35723;51.194;5.112;2024-02-21T06:43:42;10.90;99.90
49829;DHT22;35723;51.194;5.112;2024-02-21T06:46:07;10.90;99.90
49829;DHT22;35723;51.194;5.112;2024-02-21T06:48:33;10.90;99.90
49829;DHT22;35723;51.194;5.112;2024-02-21T06:50:59;10.90;99.90
49829;DHT22;35723;51.194;5.112;2024-02-21T06:53:24;10.80;99.90
49829;DHT22;35723;51.194;5.112;2024-02-21T06:55:50;10.80;99.90
49829;DHT22;35723;51.194;5.112;2024-02-21T06:58:15;10.80;99.90
49829;DHT22;35723;51.194;5.112;2024-02-21T07:00:42;10.90;99.90
49829;DHT22;35723;51.194;5.112;2024-02-21T07:03:08;10.80;99.90
49829;DHT22;35723;51.194;5.112;2024-02-21T07:05:33;10.90;99.90
49829;DHT22;35723;51.194;5.112;2024-02-21T07:07:59;10.90;99.90
49829;DHT22;35723;51.194;5.112;2024-02-21T07:10:25;10.90;99.90
49829;DHT22;35723;51.194;5.112;2024-02-21T07:12:51;10.90;99.90
49829;DHT22;35723;51.194;5.112;2024-02-21T07:15:18;10.90;99.90
49829;DHT22;35723;51.194;5.112;2024-02-21T07:17:43;10.80;99.90
49829;DHT22;35723;51.194;5.112;2024-02-21T07:20:09;10.90;99.90
49829;DHT22;35723;51.194;5.112;2024-02-21T07:22:36;10.90;99.90
49829;DHT22;35723;51.194;5.112;2024-02-21T07:25:02;11.00;99.90
49829;DHT22;35723;51.194;5.112;2024-02-21T07:27:27;11.00;99.90
49829;DHT22;35723;51.194;5.112;2024-02-21T07:29:56;11.00;99.90
49829;DHT22;35723;51.194;5.112;2024-02-21T07:32:22;11.00;99.90
49829;DHT22;35723;51.194;5.112;2024-02-21T07:34:48;11.00;99.90
49829;DHT22;35723;51.194;5.112;2024-02-21T07:37:13;11.00;99.90
49829;DHT22;35723;51.194;5.112;2024-02-21T07:39:39;10.90;99.90
49829;DHT22;35723;51.194;5.112;2024-02-21T07:42:05;11.00;99.90
49829;DHT22;35723;51.194;5.112;2024-02-21T07:44:32;10.70;99.90
49829;DHT22;35723;51.194;5.112;2024-02-21T07:46:58;10.80;99.90
49829;DHT22;35723;51.194;5.112;2024-02-21T07:49:24;10.70;99.90
49829;DHT22;35723;51.194;5.112;2024-02-21T07:51:50;10.80;99.90
49829;DHT22;35723;51.194;5.112;2024-02-21T07:54:17;10.90;99.90
49829;DHT22;35723;51.194;5.112;2024-02-21T07:56:43;10.90;99.90
49829;DHT22;35723;51.194;5.112;2024-02-21T07:59:09;10.90;99.90
49829;DHT22;35723;51.194;5.112;2024-02-21T08:01:34;10.90;99.90
49829;DHT22;35723;51.194;5.112;2024-02-21T08:04:00;10.90;99.90
49829;DHT22;35723;51.194;5.112;2024-02-21T08:06:26;11.00;99.90
49829;DHT22;35723;51.194;5.112;2024-02-21T08:08:51;11.00;99.90
49829;DHT22;35723;51.194;5.112;2024-02-21T08:11:17;11.00;99.90
49829;DHT22;35723;51.194;5.112;2024-02-21T08:13:42;10.90;99.90
49829;DHT22;35723;51.194;5.112;2024-02-21T08:16:08;10.80;99.90
49829;DHT22;35723;51.194;5.112;2024-02-21T08:18:34;10.90;99.90
49829;DHT22;35723;51.194;5.112;2024-02-21T08:21:03;11.00;99.90
49829;DHT22;35723;51.194;5.112;2024-02-21T08:23:29;10.80;99.90
49829;DHT22;35723;51.194;5.112;2024-02-21T08:25:54;10.90;99.90
49829;DHT22;35723;51.194;5.112;2024-02-21T08:28:20;10.90;99.90
49829;DHT22;35723;51.194;5.112;2024-02-21T08:30:46;10.90;99.90
49829;DHT22;35723;51.194;5.112;2024-02-21T08:33:15;10.90;99.90
49829;DHT22;35723;51.194;5.112;2024-02-21T08:35:40;10.90;99.90
49829;DHT22;35723;51.194;5.112;2024-02-21T08:38:06;11.00;99.90
49829;DHT22;35723;51.194;5.112;2024-02-21T08:40:32;11.00;99.90
49829;DHT22;35723;51.194;5.112;2024-02-21T08:43:00;11.00;99.90
49829;DHT22;35723;51.194;5.112;2024-02-21T08:45:26;11.00;99.90
49829;DHT22;35723;51.194;5.112;2024-02-21T08:47:51;11.10;99.90
49829;DHT22;35723;51.194;5.112;2024-02-21T08:50:17;10.90;99.90
49829;DHT22;35723;51.194;5.112;2024-02-21T08:52:43;10.90;99.90
49829;DHT22;35723;51.194;5.112;2024-02-21T08:55:08;10.80;99.90
49829;DHT22;35723;51.194;5.112;2024-02-21T08:57:34;10.90;99.90
49829;DHT22;35723;51.194;5.112;2024-02-21T09:00:04;10.80;99.90
49829;DHT22;35723;51.194;5.112;2024-02-21T09:02:36;10.80;99.90
49829;DHT22;35723;51.194;5.112;2024-02-21T09:05:02;10.80;99.90
49829;DHT22;35723;51.194;5.112;2024-02-21T09:07:28;10.90;99.90
49829;DHT22;35723;51.194;5.112;2024-02-21T09:09:53;10.90;99.90
49829;DHT22;35723;51.194;5.112;2024-02-21T09:12:19;10.80;99.90
49829;DHT22;35723;51.194;5.112;2024-02-21T09:14:45;10.90;99.90
49829;DHT22;35723;51.194;5.112;2024-02-21T09:17:13;10.80;99.90
49829;DHT22;35723;51.194;5.112;2024-02-21T09:19:40;10.70;99.90
49829;DHT22;35723;51.194;5.112;2024-02-21T09:22:05;10.80;99.90
49829;DHT22;35723;51.194;5.112;2024-02-21T09:24:31;10.80;99.90
49829;DHT22;35723;51.194;5.112;2024-02-21T09:26:56;10.80;99.90
49829;DHT22;35723;51.194;5.112;2024-02-21T09:29:22;10.90;99.90
49829;DHT22;35723;51.194;5.112;2024-02-21T09:31:48;10.90;99.90
49829;DHT22;35723;51.194;5.112;2024-02-21T09:34:13;10.80;99.90
49829;DHT22;35723;51.194;5.112;2024-02-21T09:36:39;11.00;99.90
49829;DHT22;35723;51.194;5.112;2024-02-21T09:39:06;10.90;99.90
49829;DHT22;35723;51.194;5.112;2024-02-21T09:41:34;10.90;99.90
49829;DHT22;35723;51.194;5.112;2024-02-21T09:44:02;11.10;99.90
49829;DHT22;35723;51.194;5.112;2024-02-21T09:46:45;11.00;99.90
49829;DHT22;35723;51.194;5.112;2024-02-21T09:49:26;11.00;99.90
49829;DHT22;35723;51.194;5.112;2024-02-21T09:51:55;11.10;99.90
49829;DHT22;35723;51.194;5.112;2024-02-21T09:54:22;11.10;99.90
49829;DHT22;35723;51.194;5.112;2024-02-21T09:56:48;11.20;99.90
49829;DHT22;35723;51.194;5.112;2024-02-21T09:59:18;11.20;99.90
49829;DHT22;35723;51.194;5.112;2024-02-21T10:01:44;11.40;99.90
49829;DHT22;35723;51.194;5.112;2024-02-21T10:04:10;11.40;99.90
49829;DHT22;35723;51.194;5.112;2024-02-21T10:06:36;11.40;99.90
49829;DHT22;35723;51.194;5.112;2024-02-21T10:09:03;11.30;99.90
49829;DHT22;35723;51.194;5.112;2024-02-21T10:11:29;11.40;99.90
49829;DHT22;35723;51.194;5.112;2024-02-21T10:14:05;11.30;99.90
49829;DHT22;35723;51.194;5.112;2024-02-21T10:16:31;11.30;99.90
49829;DHT22;35723;51.194;5.112;2024-02-21T10:18:57;11.40;99.90
49829;DHT22;35723;51.194;5.112;2024-02-21T10:21:22;11.30;99.90
49829;DHT22;35723;51.194;5.112;2024-02-21T10:23:49;11.40;99.90
49829;DHT22;35723;51.194;5.112;2024-02-21T10:26:17;11.50;99.90
49829;DHT22;35723;51.194;5.112;2024-02-21T10:28:43;11.50;99.90
49829;DHT22;35723;51.194;5.112;2024-02-21T10:31:11;11.40;99.90
49829;DHT22;35723;51.194;5.112;2024-02-21T10:33:37;11.50;99.90
49829;DHT22;35723;51.194;5.112;2024-02-21T10:36:13;11.50;99.90
49829;DHT22;35723;51.194;5.112;2024-02-21T10:38:39;11.60;99.90
49829;DHT22;35723;51.194;5.112;2024-02-21T10:41:10;11.60;99.90
49829;DHT22;35723;51.194;5.112;2024-02-21T10:43:40;11.70;99.90
49829;DHT22;35723;51.194;5.112;2024-02-21T10:46:07;11.80;99.90
49829;DHT22;35723;51.194;5.112;2024-02-21T10:48:42;11.70;99.90
49829;DHT22;35723;51.194;5.112;2024-02-21T10:51:16;11.60;99.90
49829;DHT22;35723;51.194;5.112;2024-02-21T10:56:31;11.60;99.90
49829;DHT22;35723;51.194;5.112;2024-02-21T10:59:01;11.80;99.90
49829;DHT22;35723;51.194;5.112;2024-02-21T11:01:28;11.90;99.90
49829;DHT22;35723;51.194;5.112;2024-02-21T11:03:58;12.00;99.90
49829;DHT22;35723;51.194;5.112;2024-02-21T11:06:24;11.80;99.90
49829;DHT22;35723;51.194;5.112;2024-02-21T11:09:03;12.00;99.90
49829;DHT22;35723;51.194;5.112;2024-02-21T11:11:37;11.90;99.90
49829;DHT22;35723;51.194;5.112;2024-02-21T11:14:10;12.10;99.90
49829;DHT22;35723;51.194;5.112;2024-02-21T11:16:38;12.10;99.90
49829;DHT22;35723;51.194;5.112;2024-02-21T11:19:24;12.00;99.90
49829;DHT22;35723;51.194;5.112;2024-02-21T11:21:51;11.70;99.90
49829;DHT22;35723;51.194;5.112;2024-02-21T11:24:31;11.70;99.90
49829;DHT22;35723;51.194;5.112;2024-02-21T11:27:14;11.50;99.90
49829;DHT22;35723;51.194;5.112;2024-02-21T11:29:47;11.50;99.90
49829;DHT22;35723;51.194;5.112;2024-02-21T11:32:15;11.70;99.90
49829;DHT22;35723;51.194;5.112;2024-02-21T11:34:52;11.90;99.90
49829;DHT22;35723;51.194;5.112;2024-02-21T11:37:19;11.80;99.90
49829;DHT22;35723;51.194;5.112;2024-02-21T11:39:44;12.00;99.90
49829;DHT22;35723;51.194;5.112;2024-02-21T11:42:10;12.10;99.90
49829;DHT22;35723;51.194;5.112;2024-02-21T11:44:38;12.30;99.90
49829;DHT22;35723;51.194;5.112;2024-02-21T11:47:07;12.40;99.90
49829;DHT22;35723;51.194;5.112;2024-02-21T11:49:43;12.30;99.90
49829;DHT22;35723;51.194;5.112;2024-02-21T11:52:09;12.20;99.90
49829;DHT22;35723;51.194;5.112;2024-02-21T11:54:35;12.10;99.90
49829;DHT22;35723;51.194;5.112;2024-02-21T11:57:01;12.20;99.90
49829;DHT22;35723;51.194;5.112;2024-02-21T11:59:29;12.20;99.90
49829;DHT22;35723;51.194;5.112;2024-02-21T12:01:55;12.30;99.90
49829;DHT22;35723;51.194;5.112;2024-02-21T12:04:21;12.40;99.90
49829;DHT22;35723;51.194;5.112;2024-02-21T12:06:49;12.40;99.90
49829;DHT22;35723;51.194;5.112;2024-02-21T12:09:18;12.40;99.90
49829;DHT22;35723;51.194;5.112;2024-02-21T12:11:45;12.50;99.90
49829;DHT22;35723;51.194;5.112;2024-02-21T12:14:16;12.30;99.90
49829;DHT22;35723;51.194;5.112;2024-02-21T12:16:41;12.30;99.90
49829;DHT22;35723;51.194;5.112;2024-02-21T12:19:10;12.50;99.90
49829;DHT22;35723;51.194;5.112;2024-02-21T12:21:35;12.50;99.90
49829;DHT22;35723;51.194;5.112;2024-02-21T12:24:21;12.70;99.90
49829;DHT22;35723;51.194;5.112;2024-02-21T12:26:47;12.60;99.90
49829;DHT22;35723;51.194;5.112;2024-02-21T12:29:13;12.60;99.90
49829;DHT22;35723;51.194;5.112;2024-02-21T12:31:38;12.50;99.90
49829;DHT22;35723;51.194;5.112;2024-02-21T12:34:04;12.40;99.90
49829;DHT22;35723;51.194;5.112;2024-02-21T12:36:31;12.30;99.90
49829;DHT22;35723;51.194;5.112;2024-02-21T12:38:57;12.40;99.90
49829;DHT22;35723;51.194;5.112;2024-02-21T12:41:23;12.50;99.90
49829;DHT22;35723;51.194;5.112;2024-02-21T12:43:51;12.60;99.90
49829;DHT22;35723;51.194;5.112;2024-02-21T12:46:16;12.50;99.90
49829;DHT22;35723;51.194;5.112;2024-02-21T12:48:42;12.60;99.90
49829;DHT22;35723;51.194;5.112;2024-02-21T12:51:08;12.60;99.90
49829;DHT22;35723;51.194;5.112;2024-02-21T12:53:33;12.40;99.90
49829;DHT22;35723;51.194;5.112;2024-02-21T12:56:00;12.40;99.90
49829;DHT22;35723;51.194;5.112;2024-02-21T12:58:25;12.40;99.90
49829;DHT22;35723;51.194;5.112;2024-02-21T13:00:51;12.10;99.90
49829;DHT22;35723;51.194;5.112;2024-02-21T13:03:17;12.20;99.90
49829;DHT22;35723;51.194;5.112;2024-02-21T13:05:42;12.40;99.90
49829;DHT22;35723;51.194;5.112;2024-02-21T13:08:11;12.50;99.90
49829;DHT22;35723;51.194;5.112;2024-02-21T13:10:37;12.30;99.90
49829;DHT22;35723;51.194;5.112;2024-02-21T13:19:03;10.70;99.90
49829;DHT22;35723;51.194;5.112;2024-02-21T13:21:29;10.90;99.90
49829;DHT22;35723;51.194;5.112;2024-02-21T13:23:55;11.10;99.90
49829;DHT22;35723;51.194;5.112;2024-02-21T13:26:22;11.40;99.90
49829;DHT22;35723;51.194;5.112;2024-02-21T13:28:48;11.50;99.90
49829;DHT22;35723;51.194;5.112;2024-02-21T13:31:14;11.70;99.90
49829;DHT22;35723;51.194;5.112;2024-02-21T13:33:42;11.80;99.90
49829;DHT22;35723;51.194;5.112;2024-02-21T13:36:07;12.10;99.90
49829;DHT22;35723;51.194;5.112;2024-02-21T13:38:33;12.30;99.90
49829;DHT22;35723;51.194;5.112;2024-02-21T13:40:59;12.30;99.90
49829;DHT22;35723;51.194;5.112;2024-02-21T13:43:25;12.30;99.90
49829;DHT22;35723;51.194;5.112;2024-02-21T13:45:59;12.20;99.90
49829;DHT22;35723;51.194;5.112;2024-02-21T13:48:25;12.30;99.90
49829;DHT22;35723;51.194;5.112;2024-02-21T13:50:52;12.50;99.90
49829;DHT22;35723;51.194;5.112;2024-02-21T13:53:18;12.50;99.90
49829;DHT22;35723;51.194;5.112;2024-02-21T13:55:44;12.50;99.90
49829;DHT22;35723;51.194;5.112;2024-02-21T13:58:10;12.60;99.90
49829;DHT22;35723;51.194;5.112;2024-02-21T14:00:36;12.80;99.90
49829;DHT22;35723;51.194;5.112;2024-02-21T14:03:02;12.60;99.90
49829;DHT22;35723;51.194;5.112;2024-02-21T14:05:28;12.50;99.90
49829;DHT22;35723;51.194;5.112;2024-02-21T14:07:53;12.40;99.90
49829;DHT22;35723;51.194;5.112;2024-02-21T14:10:20;12.50;99.90
49829;DHT22;35723;51.194;5.112;2024-02-21T14:12:46;12.60;99.90
49829;DHT22;35723;51.194;5.112;2024-02-21T14:15:13;12.60;99.90
49829;DHT22;35723;51.194;5.112;2024-02-21T14:17:39;12.70;99.90
49829;DHT22;35723;51.194;5.112;2024-02-21T14:20:07;12.70;99.90
49829;DHT22;35723;51.194;5.112;2024-02-21T14:22:33;12.50;99.90
49829;DHT22;35723;51.194;5.112;2024-02-21T14:24:59;12.50;99.90
49829;DHT22;35723;51.194;5.112;2024-02-21T14:27:26;12.70;99.90
49829;DHT22;35723;51.194;5.112;2024-02-21T14:29:51;12.80;99.90
49829;DHT22;35723;51.194;5.112;2024-02-21T14:32:17;12.80;99.90
49829;DHT22;35723;51.194;5.112;2024-02-21T14:34:42;12.50;99.90
49829;DHT22;35723;51.194;5.112;2024-02-21T14:37:08;12.30;99.90
49829;DHT22;35723;51.194;5.112;2024-02-21T14:39:34;12.30;99.90
49829;DHT22;35723;51.194;5.112;2024-02-21T14:42:00;12.20;99.90
49829;DHT22;35723;51.194;5.112;2024-02-21T14:44:26;12.40;99.90
49829;DHT22;35723;51.194;5.112;2024-02-21T14:46:52;12.40;99.90
49829;DHT22;35723;51.194;5.112;2024-02-21T14:49:18;12.40;99.90
49829;DHT22;35723;51.194;5.112;2024-02-21T14:51:44;12.40;99.90
49829;DHT22;35723;51.194;5.112;2024-02-21T14:54:10;12.50;99.90
49829;DHT22;35723;51.194;5.112;2024-02-21T14:56:36;12.50;99.90
49829;DHT22;35723;51.194;5.112;2024-02-21T14:59:02;12.50;99.90
49829;DHT22;35723;51.194;5.112;2024-02-21T15:01:29;12.50;99.90
49829;DHT22;35723;51.194;5.112;2024-02-21T15:03:55;12.50;99.90
49829;DHT22;35723;51.194;5.112;2024-02-21T15:06:20;12.50;99.90
49829;DHT22;35723;51.194;5.112;2024-02-21T15:08:46;12.50;99.90
49829;DHT22;35723;51.194;5.112;2024-02-21T15:11:14;12.20;99.90
49829;DHT22;35723;51.194;5.112;2024-02-21T15:13:39;12.30;99.90
49829;DHT22;35723;51.194;5.112;2024-02-21T15:16:05;12.30;99.90
49829;DHT22;35723;51.194;5.112;2024-02-21T15:18:31;12.30;99.90
49829;DHT22;35723;51.194;5.112;2024-02-21T15:21:03;12.30;99.90
49829;DHT22;35723;51.194;5.112;2024-02-21T15:23:28;12.30;99.90
49829;DHT22;35723;51.194;5.112;2024-02-21T15:25:54;12.20;99.90
49829;DHT22;35723;51.194;5.112;2024-02-21T15:28:20;12.30;99.90
49829;DHT22;35723;51.194;5.112;2024-02-21T15:30:46;12.20;99.90
49829;DHT22;35723;51.194;5.112;2024-02-21T15:33:11;12.20;99.90
49829;DHT22;35723;51.194;5.112;2024-02-21T15:35:37;12.20;99.90